• Join FlightAware (Why Join?)
  • Login
  • US Flag 
05:48PM EDT


 

Airport Tracker/Info


-or-


 

Live Flight TrackerFlight Track Log ✈ N79249 ✈ 01-Jun-2012 ✈ KAFW - KDTO

Flight Track Log - Related Links

Times and Time Zones

All times are in EDT time to prevent confusion due to time zone crossing. See the N79249 flight status page for this flight to view local times or setup timezone preferences in your user account.

Time Position Orientation Groundspeed Altitude Reporting Facility
EDT Latitude Longitude Course Direction KTS MPH feet Rate Location/Type
04:38PM 32.9822 -97.3175 170° South 71 82 1,100  Level FAA TRACON SMA TRACON (SMA)
04:38PM 32.9683 -97.3147 174° South 74 85 1,700 660 Climbing FAA TRACON SMA TRACON (SMA)
04:39PM 32.9578 -97.3133 290° West 73 84 2,000 600 Climbing FAA TRACON SMA TRACON (SMA)
04:40PM 32.9622 -97.3281 North 93 107 2,500 660 Climbing FAA TRACON SMA TRACON (SMA)
04:40PM 32.9794 -97.3261 North 90 104 2,900 180 Climbing FAA TRACON SMA TRACON (SMA)
04:41PM 32.9989 -97.3231 11° North 102 117 2,800 60 Descending FAA TRACON SMA TRACON (SMA)
04:42PM 33.0150 -97.3192 North 99 114 3,000 60 Climbing FAA TRACON SMA TRACON (SMA)
04:42PM 33.0344 -97.3156 11° North 102 117 2,900 -120 Descending FAA TRACON SMA TRACON (SMA)
04:43PM 33.0528 -97.3111 North 98 113 2,900 -120 Level FAA TRACON SMA TRACON (SMA)
04:44PM 33.0700 -97.3108 North 103 119 2,800 -120 Descending FAA TRACON SMA TRACON (SMA)
04:44PM 33.0894 -97.3106 North 102 117 2,800 120 Level FAA TRACON SMA TRACON (SMA)
04:45PM 33.1089 -97.3094 North 101 116 3,000 60 Climbing FAA TRACON SMA TRACON (SMA)
04:46PM 33.1267 -97.3069 North 105 121 2,900 -120 Descending FAA TRACON SMA TRACON (SMA)
04:46PM 33.1469 -97.3053 North 104 120 2,900 -120 Level FAA TRACON SMA TRACON (SMA)
04:47PM 33.1650 -97.3042 North 93 107 2,800 -120 Descending FAA TRACON SMA TRACON (SMA)
04:48PM 33.1828 -97.3028 North 91 105 2,800  Level FAA TRACON SMA TRACON (SMA)
04:48PM 33.1994 -97.3019 North 98 113 2,800 60 Level FAA TRACON SMA TRACON (SMA)
04:49PM 33.2181 -97.3011 North 96 110 2,900 60 Climbing FAA TRACON SMA TRACON (SMA)
04:50PM 33.2361 -97.2989 North 97 112 2,900 60 Level FAA TRACON SMA TRACON (SMA)
04:50PM 33.2531 -97.2978 North 100 115 3,000  Climbing FAA TRACON SMA TRACON (SMA)
04:51PM 33.2722 -97.2967 North 99 114 2,900 -120 Descending FAA TRACON SMA TRACON (SMA)
04:52PM 33.2911 -97.2933 North 101 116 2,900  Level FAA TRACON SMA TRACON (SMA)
04:52PM 33.3078 -97.2917 North 96 110 2,900 60 Level FAA TRACON SMA TRACON (SMA)
04:53PM 33.3256 -97.2897 North 93 107 3,000  Climbing FAA TRACON SMA TRACON (SMA)
04:54PM 33.3444 -97.2878 18° North 98 113 2,900 -120 Descending FAA TRACON SMA TRACON (SMA)
04:54PM 33.3592 -97.2822 76° East 93 107 2,900 -120 Level FAA TRACON SMA TRACON (SMA)
04:55PM 33.3636 -97.2614 75° East 98 113 2,800  Descending FAA TRACON SMA TRACON (SMA)
04:56PM 33.3681 -97.2408 75° East 92 106 2,900 120 Climbing FAA TRACON SMA TRACON (SMA)